createdAt,value
2017-11-23T00:00:23.145Z,16.10
2017-11-23T00:01:30.118Z,13.40
2017-11-23T00:02:36.942Z,17.70
2017-11-23T00:03:43.916Z,15.20
2017-11-23T00:04:50.732Z,13.20
2017-11-23T00:05:57.603Z,16.20
2017-11-23T00:07:04.393Z,11.60
2017-11-23T00:08:11.313Z,13.20
2017-11-23T00:09:17.993Z,14.80
2017-11-23T00:10:24.916Z,11.30
2017-11-23T00:11:31.771Z,14.30
2017-11-23T00:12:38.659Z,15.60
2017-11-23T00:13:45.362Z,14.80
2017-11-23T00:14:52.214Z,14.90
2017-11-23T00:15:59.013Z,16.80
2017-11-23T00:17:05.909Z,13.60
2017-11-23T00:18:12.724Z,13.60
2017-11-23T00:19:19.622Z,16.80
2017-11-23T00:20:26.402Z,14.00
2017-11-23T00:21:33.474Z,17.00
2017-11-23T00:22:40.323Z,13.80
2017-11-23T00:23:47.313Z,11.00
2017-11-23T00:24:54.116Z,12.80
2017-11-23T00:26:00.922Z,13.50
2017-11-23T00:27:07.770Z,17.50
2017-11-23T00:28:14.608Z,11.80
2017-11-23T00:29:21.441Z,11.70
2017-11-23T00:30:28.149Z,12.20
2017-11-23T00:31:35.069Z,12.80
2017-11-23T00:32:41.781Z,14.80
2017-11-23T00:33:48.821Z,14.50
2017-11-23T00:34:55.637Z,14.80
2017-11-23T00:36:02.417Z,13.60
2017-11-23T00:37:09.218Z,12.00
2017-11-23T00:38:16.096Z,12.30
2017-11-23T00:39:22.958Z,13.10
2017-11-23T00:40:29.901Z,12.30
2017-11-23T00:41:36.833Z,11.90
2017-11-23T00:42:43.626Z,12.00
2017-11-23T00:43:50.572Z,15.00
2017-11-23T00:44:57.310Z,9.90
2017-11-23T00:46:04.065Z,11.00
2017-11-23T00:47:10.913Z,13.80
2017-11-23T00:48:18.160Z,15.40
2017-11-23T00:49:24.570Z,12.90
2017-11-23T00:50:31.505Z,15.00
2017-11-23T00:51:38.249Z,11.00
2017-11-23T00:52:44.954Z,12.30
2017-11-23T00:53:51.793Z,11.60
2017-11-23T00:54:58.574Z,14.90
2017-11-23T00:56:05.354Z,10.90
2017-11-23T00:57:12.165Z,13.10
2017-11-23T00:58:19.021Z,11.70
2017-11-23T00:59:25.917Z,12.90
2017-11-23T01:00:32.784Z,12.90
2017-11-23T01:01:39.477Z,10.20
2017-11-23T01:02:46.304Z,10.80
2017-11-23T01:03:53.122Z,10.90
2017-11-23T01:04:59.882Z,9.10
2017-11-23T01:06:06.717Z,12.70
2017-11-23T01:07:13.468Z,12.60
2017-11-23T01:08:20.252Z,15.60
2017-11-23T01:09:27.217Z,10.50
2017-11-23T01:10:34.078Z,10.50
2017-11-23T01:11:41.102Z,9.00
2017-11-23T01:12:48.004Z,11.90
2017-11-23T01:13:54.969Z,12.90
2017-11-23T01:15:01.727Z,13.20
2017-11-23T01:16:09.078Z,11.60
2017-11-23T01:17:15.912Z,11.70
2017-11-23T01:18:22.790Z,10.80
2017-11-23T01:19:29.575Z,13.10
2017-11-23T01:20:36.574Z,11.90
2017-11-23T01:21:43.321Z,10.60
2017-11-23T01:22:50.146Z,11.30
2017-11-23T01:23:57.110Z,11.40
2017-11-23T01:25:03.988Z,11.50
2017-11-23T01:26:10.753Z,10.80
2017-11-23T01:27:17.642Z,13.30
2017-11-23T01:28:24.392Z,12.20
2017-11-23T01:29:31.164Z,12.00
2017-11-23T01:30:37.953Z,11.60
2017-11-23T01:31:44.706Z,11.50
2017-11-23T01:32:51.551Z,11.30
2017-11-23T01:33:58.406Z,14.50
2017-11-23T01:35:05.238Z,14.80
2017-11-23T01:36:12.226Z,12.70
2017-11-23T01:37:19.089Z,14.90
2017-11-23T01:38:25.893Z,15.10
2017-11-23T01:39:32.725Z,11.80
2017-11-23T01:40:39.567Z,11.40
2017-11-23T01:41:46.240Z,13.70
2017-11-23T01:42:53.450Z,12.30
2017-11-23T01:44:00.442Z,12.70
2017-11-23T01:45:07.139Z,14.20
2017-11-23T01:46:13.943Z,13.70
2017-11-23T01:47:20.759Z,14.30
2017-11-23T01:48:27.682Z,11.00
2017-11-23T01:49:34.581Z,12.40
2017-11-23T01:50:41.341Z,11.90
2017-11-23T01:51:48.309Z,14.10
2017-11-23T01:52:55.618Z,14.50
2017-11-23T01:54:02.008Z,16.70
2017-11-23T01:55:08.911Z,15.80
2017-11-23T01:56:15.677Z,15.80
2017-11-23T01:57:22.495Z,14.30
2017-11-23T01:58:29.502Z,13.00
2017-11-23T01:59:36.473Z,13.00
2017-11-23T02:00:43.532Z,12.60
2017-11-23T02:01:50.185Z,15.90
2017-11-23T02:02:57.027Z,14.20
2017-11-23T02:04:03.827Z,14.00
2017-11-23T02:05:10.597Z,12.20
2017-11-23T02:06:17.433Z,10.90
2017-11-23T02:07:24.298Z,13.30
2017-11-23T02:08:31.085Z,10.10
2017-11-23T02:09:38.004Z,12.80
2017-11-23T02:10:44.870Z,12.30
2017-11-23T02:11:51.601Z,13.30
2017-11-23T02:12:58.522Z,13.20
2017-11-23T02:14:05.389Z,15.30
2017-11-23T02:15:12.269Z,12.00
2017-11-23T02:16:19.030Z,13.00
2017-11-23T02:17:26.118Z,11.90
2017-11-23T02:18:33.138Z,14.50
2017-11-23T02:19:40.022Z,10.20
2017-11-23T02:20:46.953Z,11.80
2017-11-23T02:21:53.995Z,13.70
2017-11-23T02:23:00.986Z,12.10
2017-11-23T02:24:07.982Z,9.10
2017-11-23T02:25:15.021Z,15.10
2017-11-23T02:26:22.106Z,11.50
2017-11-23T02:27:28.934Z,9.80
2017-11-23T02:28:35.987Z,12.90
2017-11-23T02:29:43.027Z,11.50
2017-11-23T02:30:50.085Z,12.00
2017-11-23T02:31:57.213Z,11.40
2017-11-23T02:33:04.233Z,12.60
2017-11-23T02:34:11.224Z,10.50
2017-11-23T02:35:18.249Z,12.70
2017-11-23T02:36:25.236Z,11.60
2017-11-23T02:37:32.218Z,11.60
2017-11-23T02:38:39.019Z,12.00
2017-11-23T02:39:45.849Z,13.60
2017-11-23T02:40:52.815Z,10.80
2017-11-23T02:41:59.775Z,10.80
2017-11-23T02:43:07.329Z,13.40
2017-11-23T02:44:13.650Z,11.30
2017-11-23T02:45:20.580Z,14.10
2017-11-23T02:46:27.408Z,9.90
2017-11-23T02:47:34.329Z,10.40
2017-11-23T02:48:41.298Z,11.70
2017-11-23T02:49:48.386Z,11.60
2017-11-23T02:50:55.445Z,9.10
2017-11-23T02:52:02.521Z,10.90
2017-11-23T02:53:09.337Z,10.30
2017-11-23T02:54:16.315Z,13.40
2017-11-23T02:55:23.117Z,10.80
2017-11-23T02:56:30.144Z,13.10
2017-11-23T02:57:37.178Z,11.60
2017-11-23T02:58:44.326Z,10.90
2017-11-23T02:59:51.202Z,12.60
2017-11-23T03:00:58.089Z,11.90
2017-11-23T03:02:05.158Z,12.00
2017-11-23T03:03:12.170Z,13.10
2017-11-23T03:04:19.511Z,11.20
2017-11-23T03:05:25.861Z,12.10
2017-11-23T03:06:32.807Z,12.70
2017-11-23T03:07:39.706Z,14.60
2017-11-23T03:08:46.450Z,11.60
2017-11-23T03:09:53.253Z,15.90
2017-11-23T03:11:00.061Z,14.20
2017-11-23T03:12:07.058Z,10.80
2017-11-23T03:13:13.822Z,13.40
2017-11-23T03:14:20.900Z,11.20
2017-11-23T03:15:27.749Z,12.30
2017-11-23T03:16:34.525Z,12.70
2017-11-23T03:17:41.475Z,12.60
2017-11-23T03:18:48.258Z,11.20
2017-11-23T03:19:55.322Z,14.00
2017-11-23T03:21:02.121Z,12.60
2017-11-23T03:22:09.098Z,11.90
2017-11-23T03:23:15.962Z,11.20
2017-11-23T03:24:22.817Z,14.10
2017-11-23T03:25:29.633Z,15.90
2017-11-23T03:26:36.394Z,13.80
2017-11-23T03:27:43.319Z,13.70
2017-11-23T03:28:50.092Z,14.50
2017-11-23T03:29:57.024Z,14.10
2017-11-23T03:31:04.052Z,13.60
2017-11-23T03:32:11.000Z,15.00
2017-11-23T03:33:17.867Z,10.70
2017-11-23T03:34:24.555Z,12.60
2017-11-23T03:35:31.397Z,12.50
2017-11-23T03:36:38.497Z,13.70
2017-11-23T03:37:45.313Z,14.80
2017-11-23T03:38:52.091Z,13.70
2017-11-23T03:39:59.031Z,12.40
2017-11-23T03:41:05.945Z,11.40
2017-11-23T03:42:12.811Z,13.40
2017-11-23T03:43:19.845Z,16.30
2017-11-23T03:44:26.680Z,11.70
2017-11-23T03:45:33.816Z,15.00
2017-11-23T03:46:40.878Z,13.30
2017-11-23T03:47:47.725Z,12.10
2017-11-23T03:48:54.714Z,15.10
2017-11-23T03:50:01.598Z,15.10
2017-11-23T03:51:08.322Z,20.80
2017-11-23T03:52:15.189Z,14.30
2017-11-23T03:53:22.049Z,15.60
2017-11-23T03:54:28.804Z,13.80
2017-11-23T03:55:35.598Z,14.60
2017-11-23T03:56:42.373Z,14.20
2017-11-23T03:57:49.326Z,13.20
2017-11-23T03:58:56.175Z,13.70
2017-11-23T04:00:02.942Z,13.50
2017-11-23T04:01:09.866Z,15.70
2017-11-23T04:02:16.729Z,14.60
2017-11-23T04:03:23.602Z,14.10
2017-11-23T04:04:30.457Z,13.60
2017-11-23T04:05:37.369Z,13.60
2017-11-23T04:06:44.177Z,14.20
2017-11-23T04:07:50.932Z,12.20
2017-11-23T04:08:57.625Z,13.50
2017-11-23T04:10:04.525Z,10.80
2017-11-23T04:11:11.445Z,11.10
2017-11-23T04:12:18.229Z,12.30
2017-11-23T04:13:25.177Z,13.50
2017-11-23T04:14:32.261Z,12.80
2017-11-23T04:15:39.334Z,14.30
2017-11-23T04:16:46.430Z,12.50
2017-11-23T04:17:53.296Z,11.40
2017-11-23T04:19:00.395Z,15.00
2017-11-23T04:20:07.166Z,13.20
2017-11-23T04:21:14.214Z,13.50
2017-11-23T04:22:20.933Z,9.90
2017-11-23T04:23:27.781Z,10.60
2017-11-23T04:24:34.891Z,10.70
2017-11-23T04:25:41.752Z,13.30
2017-11-23T04:26:48.770Z,10.70
2017-11-23T04:27:55.942Z,12.50
2017-11-23T04:29:02.839Z,11.10
2017-11-23T04:30:09.809Z,12.30
2017-11-23T04:31:16.806Z,12.20
2017-11-23T04:32:23.554Z,11.10
2017-11-23T04:33:30.484Z,13.40
2017-11-23T04:34:37.204Z,11.70
2017-11-23T04:35:44.095Z,11.80
2017-11-23T04:36:50.814Z,10.40
2017-11-23T04:37:57.633Z,14.00
2017-11-23T04:39:04.629Z,15.70
2017-11-23T04:40:11.450Z,10.90
2017-11-23T04:41:18.496Z,12.50
2017-11-23T04:42:25.473Z,10.80
2017-11-23T04:43:32.520Z,12.60
2017-11-23T04:44:39.417Z,10.10
2017-11-23T04:45:46.153Z,13.20
2017-11-23T04:46:52.954Z,10.60
2017-11-23T04:47:59.774Z,12.70
2017-11-23T04:49:06.697Z,10.60
2017-11-23T04:50:13.641Z,12.20
2017-11-23T04:51:20.508Z,13.50
2017-11-23T04:52:27.294Z,13.50
2017-11-23T04:53:34.141Z,11.70
2017-11-23T04:54:40.917Z,11.50
2017-11-23T04:55:47.614Z,12.60
2017-11-23T04:56:54.419Z,11.70
2017-11-23T04:58:01.213Z,11.00
2017-11-23T04:59:08.004Z,13.10
2017-11-23T05:00:14.778Z,12.30
2017-11-23T05:01:21.839Z,17.00
2017-11-23T05:02:28.628Z,17.70
2017-11-23T05:03:35.412Z,16.80
2017-11-23T05:04:42.196Z,19.40
2017-11-23T05:05:49.088Z,19.80
2017-11-23T05:06:56.088Z,20.00
2017-11-23T05:08:02.725Z,21.90
2017-11-23T05:09:09.529Z,18.60
2017-11-23T05:10:16.625Z,18.20
2017-11-23T05:11:23.543Z,17.80
2017-11-23T05:12:30.406Z,17.50
2017-11-23T05:13:37.148Z,15.80
2017-11-23T05:14:43.894Z,14.30
2017-11-23T05:15:50.889Z,14.00
2017-11-23T05:16:57.961Z,17.10
2017-11-23T05:18:04.773Z,16.00
2017-11-23T05:19:11.688Z,13.00
2017-11-23T05:20:18.455Z,14.10
2017-11-23T05:21:25.330Z,14.00
2017-11-23T05:22:32.314Z,14.80
2017-11-23T05:23:39.121Z,14.70
2017-11-23T05:24:45.938Z,14.20
2017-11-23T05:25:53.531Z,14.40
2017-11-23T05:27:00.019Z,13.30
2017-11-23T05:28:06.854Z,18.10
2017-11-23T05:29:13.617Z,12.10
2017-11-23T05:30:20.492Z,13.70
2017-11-23T05:31:27.273Z,14.20
2017-11-23T05:32:34.201Z,14.60
2017-11-23T05:33:41.037Z,15.60
2017-11-23T05:34:47.980Z,14.30
2017-11-23T05:35:54.854Z,14.20
2017-11-23T05:37:01.668Z,15.70
2017-11-23T05:38:08.393Z,14.20
2017-11-23T05:39:15.245Z,13.80
2017-11-23T05:40:22.126Z,12.00
2017-11-23T05:41:29.027Z,14.50
2017-11-23T05:42:35.929Z,13.50
2017-11-23T05:43:42.737Z,16.10
2017-11-23T05:44:49.610Z,12.60
2017-11-23T05:45:56.361Z,15.80
2017-11-23T05:47:03.442Z,16.30
2017-11-23T05:48:10.382Z,14.40
2017-11-23T05:49:17.098Z,14.50
2017-11-23T05:50:23.921Z,14.90
2017-11-23T05:51:30.846Z,12.80
2017-11-23T05:52:37.662Z,12.20
2017-11-23T05:53:44.578Z,12.40
2017-11-23T05:54:51.510Z,14.30
2017-11-23T05:55:58.273Z,15.70
2017-11-23T05:57:04.979Z,17.00
2017-11-23T05:58:11.769Z,20.10
2017-11-23T05:59:18.609Z,16.20
2017-11-23T06:00:25.436Z,13.00
2017-11-23T06:01:32.144Z,18.20
2017-11-23T06:02:39.329Z,23.60
2017-11-23T06:03:46.098Z,24.70
2017-11-23T06:04:53.119Z,25.60
2017-11-23T06:05:59.986Z,24.10
2017-11-23T06:07:06.886Z,19.60
2017-11-23T06:08:13.644Z,21.00
2017-11-23T06:09:20.618Z,23.00
2017-11-23T06:10:27.326Z,24.10
2017-11-23T06:11:34.209Z,30.00
2017-11-23T06:12:40.977Z,28.20
2017-11-23T06:13:47.700Z,23.80
2017-11-23T06:14:54.427Z,21.80
2017-11-23T06:16:01.266Z,22.60
2017-11-23T06:17:08.127Z,20.90
2017-11-23T06:18:14.942Z,23.90
2017-11-23T06:19:21.693Z,24.80
2017-11-23T06:20:28.468Z,29.80
2017-11-23T06:21:35.456Z,21.50
2017-11-23T06:22:42.290Z,23.00
2017-11-23T06:23:49.258Z,24.50
2017-11-23T06:24:55.999Z,30.40
2017-11-23T06:26:02.846Z,27.00
2017-11-23T06:27:09.674Z,29.40
2017-11-23T06:28:16.410Z,28.40
2017-11-23T06:29:23.254Z,26.70
2017-11-23T06:30:30.028Z,23.20
2017-11-23T06:31:36.773Z,24.30
2017-11-23T06:32:43.539Z,23.00
2017-11-23T06:33:50.339Z,18.90
2017-11-23T06:34:57.237Z,18.70
2017-11-23T06:36:04.270Z,24.60
2017-11-23T06:37:11.118Z,25.50
2017-11-23T06:38:17.885Z,26.20
2017-11-23T06:39:24.882Z,28.70
2017-11-23T06:40:31.772Z,26.20
2017-11-23T06:41:38.626Z,28.40
2017-11-23T06:42:45.407Z,26.90
2017-11-23T06:43:52.337Z,24.90
2017-11-23T06:44:59.265Z,26.50
2017-11-23T06:46:06.099Z,21.70
2017-11-23T06:47:12.842Z,26.80
2017-11-23T06:48:19.668Z,21.30
2017-11-23T06:49:26.468Z,21.70
2017-11-23T06:50:33.382Z,24.60
2017-11-23T06:51:40.354Z,19.50
2017-11-23T06:52:47.234Z,22.60
2017-11-23T06:53:53.984Z,21.10
2017-11-23T06:55:00.802Z,21.10
2017-11-23T06:56:07.504Z,19.00
2017-11-23T06:57:14.767Z,22.00
2017-11-23T06:58:21.672Z,18.90
2017-11-23T06:59:28.669Z,23.10
2017-11-23T07:00:35.558Z,19.80
2017-11-23T07:01:42.275Z,20.00
2017-11-23T07:02:49.081Z,22.20
2017-11-23T07:03:55.933Z,22.30
2017-11-23T07:05:02.750Z,19.60
2017-11-23T07:06:09.466Z,21.30
2017-11-23T07:07:16.250Z,20.80
2017-11-23T07:08:22.911Z,16.60
2017-11-23T07:09:29.678Z,16.30
2017-11-23T07:10:36.541Z,19.50
2017-11-23T07:11:43.283Z,21.60
2017-11-23T07:12:50.086Z,19.80
2017-11-23T07:13:56.857Z,18.40
2017-11-23T07:15:03.666Z,20.10
2017-11-23T07:16:10.422Z,19.20
2017-11-23T07:17:17.227Z,18.60
2017-11-23T07:18:24.058Z,19.10
2017-11-23T07:19:31.253Z,17.40
2017-11-23T07:20:38.210Z,17.80
2017-11-23T07:21:45.031Z,19.50
2017-11-23T07:22:51.812Z,21.70
2017-11-23T07:23:58.853Z,18.90
2017-11-23T07:25:05.805Z,19.10
2017-11-23T07:26:12.618Z,18.40
2017-11-23T07:27:19.549Z,17.00
2017-11-23T07:28:26.346Z,20.50
2017-11-23T07:29:33.514Z,19.90
2017-11-23T07:30:40.314Z,16.80
2017-11-23T07:31:47.262Z,21.50
2017-11-23T07:32:54.077Z,17.70
2017-11-23T07:34:00.910Z,17.90
2017-11-23T07:35:07.857Z,16.80
2017-11-23T07:36:14.656Z,16.10
2017-11-23T07:37:21.462Z,22.20
2017-11-23T07:38:28.469Z,18.60
2017-11-23T07:39:35.455Z,18.80
2017-11-23T07:40:42.297Z,15.60
2017-11-23T07:41:49.145Z,15.40
2017-11-23T07:42:55.999Z,18.10
2017-11-23T07:44:02.908Z,14.60
2017-11-23T07:45:09.871Z,14.60
2017-11-23T07:46:16.594Z,14.40
2017-11-23T07:47:23.462Z,14.60
2017-11-23T07:48:30.388Z,16.90
2017-11-23T07:49:37.284Z,12.70
2017-11-23T07:50:44.205Z,11.10
2017-11-23T07:51:51.266Z,11.80
2017-11-23T07:52:57.873Z,11.60
2017-11-23T07:54:04.725Z,12.90
2017-11-23T07:55:11.594Z,11.60
2017-11-23T07:56:18.274Z,12.50
2017-11-23T07:57:25.635Z,11.70
2017-11-23T07:58:32.379Z,12.70
2017-11-23T07:59:39.254Z,10.20
2017-11-23T08:00:46.161Z,14.30
2017-11-23T08:01:53.063Z,12.30
2017-11-23T08:03:00.053Z,13.90
2017-11-23T08:04:06.818Z,10.50
2017-11-23T08:05:13.627Z,10.00
2017-11-23T08:06:20.438Z,10.70
2017-11-23T08:07:27.182Z,12.30
2017-11-23T08:08:34.006Z,11.80
2017-11-23T08:09:40.665Z,12.60
2017-11-23T08:10:47.484Z,11.90
2017-11-23T08:11:54.311Z,12.80
2017-11-23T08:13:01.141Z,10.00
2017-11-23T08:14:08.082Z,12.80
2017-11-23T08:15:15.014Z,8.90
2017-11-23T08:16:22.136Z,9.70
2017-11-23T08:17:28.858Z,10.80
2017-11-23T08:18:35.897Z,10.50
2017-11-23T08:19:42.618Z,10.00
2017-11-23T08:20:49.415Z,9.70
2017-11-23T08:21:56.557Z,10.40
2017-11-23T08:23:03.359Z,10.30
2017-11-23T08:24:10.141Z,10.60
2017-11-23T08:25:16.849Z,11.40
2017-11-23T08:26:25.908Z,13.30
2017-11-23T08:27:30.690Z,14.00
2017-11-23T08:28:37.633Z,13.20
2017-11-23T08:29:44.484Z,13.90
2017-11-23T08:30:51.350Z,16.40
2017-11-23T08:31:58.077Z,13.40
2017-11-23T08:33:05.113Z,13.70
2017-11-23T08:34:11.999Z,12.90
2017-11-23T08:35:18.932Z,11.90
2017-11-23T08:36:25.764Z,9.80
2017-11-23T08:37:32.669Z,11.00
2017-11-23T08:38:39.461Z,11.60
2017-11-23T08:39:46.483Z,11.20
2017-11-23T08:40:53.164Z,12.60
2017-11-23T08:42:00.067Z,12.70
2017-11-23T08:43:07.178Z,8.80
2017-11-23T08:44:13.891Z,9.40
2017-11-23T08:45:20.767Z,9.40
2017-11-23T08:46:27.598Z,9.40
2017-11-23T08:47:34.333Z,11.30
2017-11-23T08:48:41.157Z,13.80
2017-11-23T08:49:48.043Z,9.90
2017-11-23T08:50:55.065Z,9.90
2017-11-23T08:52:01.704Z,7.90
2017-11-23T08:53:08.233Z,9.30
2017-11-23T08:54:15.335Z,11.70
2017-11-23T08:55:22.241Z,8.70
2017-11-23T08:56:29.283Z,11.40
2017-11-23T08:57:36.373Z,8.90
2017-11-23T08:58:43.091Z,9.50
2017-11-23T08:59:49.882Z,8.70
2017-11-23T09:00:56.683Z,10.50
2017-11-23T09:02:03.302Z,9.80
2017-11-23T09:03:10.464Z,10.00
2017-11-23T09:04:17.435Z,11.00
2017-11-23T09:05:24.311Z,12.20
2017-11-23T09:06:31.250Z,10.80
2017-11-23T09:07:38.177Z,8.80
2017-11-23T09:08:44.969Z,8.70
2017-11-23T09:09:51.938Z,10.60
2017-11-23T09:10:58.856Z,10.70
2017-11-23T09:12:05.992Z,13.20
2017-11-23T09:13:12.873Z,9.70
2017-11-23T09:14:19.732Z,9.00
2017-11-23T09:15:26.554Z,10.50
2017-11-23T09:16:33.316Z,12.00
2017-11-23T09:17:40.160Z,10.60
2017-11-23T09:18:47.030Z,13.80
2017-11-23T09:19:53.774Z,13.60
2017-11-23T09:21:00.497Z,12.00
2017-11-23T09:22:07.259Z,13.00
2017-11-23T09:23:13.962Z,12.40
2017-11-23T09:24:20.756Z,14.40
2017-11-23T09:25:27.488Z,10.20
2017-11-23T09:26:34.442Z,14.40
2017-11-23T09:27:41.433Z,10.50
2017-11-23T09:28:48.124Z,13.50
2017-11-23T09:29:54.906Z,10.90
2017-11-23T09:31:01.737Z,11.30
2017-11-23T09:32:08.514Z,11.90
2017-11-23T09:33:15.249Z,11.30
2017-11-23T09:34:22.043Z,12.10
2017-11-23T09:35:29.115Z,13.70
2017-11-23T09:36:35.860Z,13.80
2017-11-23T09:37:42.646Z,10.20
2017-11-23T09:38:49.503Z,11.70
2017-11-23T09:39:56.345Z,12.30
2017-11-23T09:41:03.126Z,11.70
2017-11-23T09:42:09.927Z,12.80
2017-11-23T09:43:16.777Z,14.90
2017-11-23T09:44:23.545Z,11.80
2017-11-23T09:45:30.554Z,13.40
2017-11-23T09:46:37.444Z,12.50
2017-11-23T09:47:44.210Z,12.60
2017-11-23T09:48:51.033Z,13.80
2017-11-23T09:49:57.999Z,15.90
2017-11-23T09:51:04.830Z,11.00
2017-11-23T09:52:11.713Z,15.60
2017-11-23T09:53:18.457Z,14.10
2017-11-23T09:54:25.248Z,13.00
2017-11-23T09:55:32.071Z,12.50
2017-11-23T09:56:38.968Z,11.90
2017-11-23T09:57:45.838Z,16.20
2017-11-23T09:58:52.718Z,10.40
2017-11-23T09:59:59.582Z,12.30
2017-11-23T10:01:06.450Z,15.70
2017-11-23T10:02:13.419Z,12.80
2017-11-23T10:03:20.346Z,13.60
2017-11-23T10:04:27.435Z,12.90
2017-11-23T10:05:34.199Z,12.30
2017-11-23T10:06:41.021Z,13.10
2017-11-23T10:07:47.963Z,11.60
2017-11-23T10:08:54.817Z,13.70
2017-11-23T10:10:01.661Z,15.80
2017-11-23T10:11:08.766Z,16.20
2017-11-23T10:12:15.693Z,17.30
2017-11-23T10:13:22.525Z,11.90
2017-11-23T10:14:29.342Z,13.50
2017-11-23T10:15:36.245Z,10.10
2017-11-23T10:16:43.323Z,11.00
2017-11-23T10:17:50.145Z,11.80
2017-11-23T10:18:57.249Z,10.70
2017-11-23T10:20:03.984Z,11.20
2017-11-23T10:21:10.937Z,11.50
2017-11-23T10:22:17.917Z,12.50
2017-11-23T10:23:24.774Z,9.80
2017-11-23T10:24:31.526Z,11.70
2017-11-23T10:25:38.426Z,11.10
2017-11-23T10:26:45.309Z,11.00
2017-11-23T10:27:52.166Z,13.00
2017-11-23T10:28:59.178Z,15.40
2017-11-23T10:30:05.954Z,9.60
2017-11-23T10:31:12.773Z,9.00
2017-11-23T10:32:19.722Z,10.70
2017-11-23T10:33:26.541Z,11.50
2017-11-23T10:34:33.327Z,10.70
2017-11-23T10:35:40.190Z,12.10
2017-11-23T10:36:47.022Z,10.00
2017-11-23T10:37:53.910Z,10.20
2017-11-23T10:39:00.677Z,10.90
2017-11-23T10:40:07.486Z,9.40
2017-11-23T10:41:14.392Z,8.40
2017-11-23T10:42:21.118Z,6.80
2017-11-23T10:43:28.120Z,9.60
2017-11-23T10:44:34.837Z,10.00
2017-11-23T10:45:41.599Z,13.00
2017-11-23T10:46:48.451Z,10.90
2017-11-23T10:47:55.190Z,9.70
2017-11-23T10:49:02.021Z,11.20
2017-11-23T10:50:08.915Z,10.70
2017-11-23T10:51:15.726Z,10.60
2017-11-23T10:52:22.697Z,8.60
2017-11-23T10:53:29.493Z,10.10
2017-11-23T10:54:36.242Z,8.80
2017-11-23T10:55:43.103Z,12.10
2017-11-23T10:56:49.878Z,9.70
2017-11-23T10:57:56.878Z,6.80
2017-11-23T10:59:03.662Z,8.60
2017-11-23T11:00:10.359Z,10.50
2017-11-23T11:01:17.293Z,10.40
2017-11-23T11:02:24.216Z,13.70
2017-11-23T11:03:31.115Z,7.50
2017-11-23T11:04:37.918Z,8.50
2017-11-23T11:05:44.910Z,9.40
2017-11-23T11:06:51.742Z,7.30
2017-11-23T11:07:58.603Z,6.90
2017-11-23T11:09:05.359Z,7.50
2017-11-23T11:10:12.105Z,9.20
2017-11-23T11:11:18.990Z,11.60
2017-11-23T11:12:25.674Z,8.40
2017-11-23T11:13:32.495Z,8.20
2017-11-23T11:14:39.319Z,7.30
2017-11-23T11:15:46.010Z,9.20
2017-11-23T11:16:52.937Z,7.40
2017-11-23T11:17:59.845Z,8.80
2017-11-23T11:19:06.569Z,7.70
2017-11-23T11:20:13.407Z,7.60
2017-11-23T11:21:20.198Z,13.30
2017-11-23T11:22:27.133Z,7.30
2017-11-23T11:23:33.854Z,6.20
2017-11-23T11:24:40.675Z,8.40
2017-11-23T11:25:47.650Z,8.00
2017-11-23T11:26:54.512Z,8.00
2017-11-23T11:28:01.395Z,6.50
2017-11-23T11:29:08.094Z,9.20
2017-11-23T11:30:15.132Z,7.00
2017-11-23T11:31:21.967Z,7.80
2017-11-23T11:32:28.722Z,9.20
2017-11-23T11:33:35.635Z,6.60
2017-11-23T11:34:42.398Z,9.40
2017-11-23T11:35:49.186Z,7.10
2017-11-23T11:36:56.026Z,6.80
2017-11-23T11:38:02.860Z,6.20
2017-11-23T11:39:09.785Z,9.40
2017-11-23T11:40:16.578Z,6.50
2017-11-23T11:41:23.495Z,7.30
2017-11-23T11:42:30.365Z,11.60
2017-11-23T11:43:37.363Z,7.40
2017-11-23T11:44:44.082Z,8.90
2017-11-23T11:45:51.361Z,7.20
2017-11-23T11:46:58.328Z,7.50
2017-11-23T11:48:05.158Z,7.60
2017-11-23T11:49:12.006Z,7.60
2017-11-23T11:50:18.930Z,8.80
2017-11-23T11:51:25.759Z,10.60
2017-11-23T11:52:32.665Z,10.60
2017-11-23T11:53:39.430Z,8.80
2017-11-23T11:54:46.266Z,8.70
2017-11-23T11:55:53.190Z,10.40
2017-11-23T11:56:59.918Z,5.40
2017-11-23T11:58:06.759Z,7.10
2017-11-23T11:59:13.466Z,9.30
2017-11-23T12:00:20.147Z,8.10
2017-11-23T12:01:27.217Z,8.40
2017-11-23T12:02:34.286Z,8.30
2017-11-23T12:03:41.041Z,8.10
2017-11-23T12:04:48.054Z,10.30
2017-11-23T12:05:54.814Z,7.90
2017-11-23T12:07:01.806Z,9.40
2017-11-23T12:08:08.726Z,9.40
2017-11-23T12:09:15.538Z,7.70
2017-11-23T12:10:22.328Z,9.80
2017-11-23T12:11:29.221Z,6.30
2017-11-23T12:12:35.993Z,7.00
2017-11-23T12:13:42.911Z,10.60
2017-11-23T12:14:49.933Z,7.40
2017-11-23T12:15:57.029Z,8.30
2017-11-23T12:17:04.159Z,8.80
2017-11-23T12:18:11.255Z,8.10
2017-11-23T12:19:18.099Z,10.30
2017-11-23T12:20:24.846Z,5.60
2017-11-23T12:21:31.933Z,8.00
2017-11-23T12:22:38.901Z,7.10
2017-11-23T12:23:45.934Z,8.60
2017-11-23T12:24:52.597Z,6.80
2017-11-23T12:25:59.680Z,5.60
2017-11-23T12:27:06.777Z,9.60
2017-11-23T12:28:13.692Z,7.40
2017-11-23T12:29:20.578Z,7.40
2017-11-23T12:30:27.496Z,6.30
2017-11-23T12:31:34.372Z,7.40
2017-11-23T12:32:41.237Z,8.00
2017-11-23T12:33:47.930Z,7.60
2017-11-23T12:34:54.825Z,7.80
2017-11-23T12:36:01.733Z,7.40
2017-11-23T12:37:08.526Z,5.40
2017-11-23T12:38:15.361Z,8.10
2017-11-23T12:39:22.322Z,6.50
2017-11-23T12:40:29.081Z,5.40
2017-11-23T12:41:35.898Z,7.40
2017-11-23T12:42:42.671Z,9.20
2017-11-23T12:43:51.766Z,10.20
2017-11-23T12:44:56.685Z,4.70
2017-11-23T12:46:03.525Z,5.30
2017-11-23T12:47:10.309Z,6.90
2017-11-23T12:48:17.428Z,4.60
2017-11-23T12:49:24.379Z,5.80
2017-11-23T12:50:31.299Z,8.90
2017-11-23T12:51:38.256Z,8.10
2017-11-23T12:52:45.161Z,6.50
2017-11-23T12:53:52.013Z,6.70
2017-11-23T12:54:58.875Z,5.90
2017-11-23T12:56:05.997Z,5.70
2017-11-23T12:57:12.941Z,6.90
2017-11-23T12:58:19.881Z,5.60
2017-11-23T12:59:26.748Z,8.70
2017-11-23T13:00:33.617Z,4.60
2017-11-23T13:01:40.390Z,9.50
2017-11-23T13:02:47.285Z,5.30
2017-11-23T13:03:54.113Z,7.70
2017-11-23T13:05:00.991Z,7.00
2017-11-23T13:06:08.063Z,9.30
2017-11-23T13:07:15.054Z,10.70
2017-11-23T13:08:22.065Z,5.60
2017-11-23T13:09:28.834Z,10.60
2017-11-23T13:10:35.690Z,8.00
2017-11-23T13:11:42.598Z,9.20
2017-11-23T13:12:49.336Z,9.50
2017-11-23T13:13:56.124Z,6.20
2017-11-23T13:15:02.943Z,6.20
2017-11-23T13:16:09.794Z,8.50
2017-11-23T13:17:16.731Z,8.30
2017-11-23T13:18:23.598Z,5.90
2017-11-23T13:19:30.458Z,6.40
2017-11-23T13:20:37.146Z,7.60
2017-11-23T13:21:43.997Z,8.30
2017-11-23T13:22:51.037Z,8.00
2017-11-23T13:23:58.478Z,6.20
2017-11-23T13:25:04.862Z,6.10
2017-11-23T13:26:12.119Z,7.80
2017-11-23T13:27:18.335Z,7.60
2017-11-23T13:28:25.121Z,8.60
2017-11-23T13:29:32.085Z,6.30
2017-11-23T13:30:39.039Z,9.20
2017-11-23T13:31:46.429Z,7.80
2017-11-23T13:32:52.700Z,8.80
2017-11-23T13:33:59.982Z,7.10
2017-11-23T13:35:06.774Z,5.50
2017-11-23T13:36:13.546Z,7.40
2017-11-23T13:37:20.386Z,7.70
2017-11-23T13:38:27.358Z,4.80
2017-11-23T13:39:34.260Z,6.10
2017-11-23T13:40:41.678Z,5.20
2017-11-23T13:41:48.274Z,5.80
2017-11-23T13:42:55.125Z,6.80
2017-11-23T13:44:02.074Z,5.70
2017-11-23T13:45:08.847Z,7.20
2017-11-23T13:46:17.845Z,7.10
2017-11-23T13:47:22.430Z,5.70
2017-11-23T13:48:29.353Z,6.40
2017-11-23T13:49:36.277Z,5.60
2017-11-23T13:50:43.097Z,9.80
2017-11-23T13:51:49.958Z,5.60
2017-11-23T13:52:56.966Z,4.60
2017-11-23T13:54:03.963Z,5.60
2017-11-23T13:55:10.932Z,7.10
2017-11-23T13:56:17.986Z,6.00
2017-11-23T13:57:24.868Z,7.00
2017-11-23T13:58:31.867Z,5.30
2017-11-23T13:59:38.534Z,6.50
2017-11-23T14:00:45.416Z,5.20
2017-11-23T14:01:52.394Z,5.90
2017-11-23T14:02:59.361Z,7.50
2017-11-23T14:04:06.285Z,6.60
2017-11-23T14:05:13.376Z,6.90
2017-11-23T14:06:20.260Z,4.70
2017-11-23T14:07:27.328Z,7.60
2017-11-23T14:08:34.271Z,6.40
2017-11-23T14:09:41.390Z,4.70
2017-11-23T14:10:48.118Z,5.00
2017-11-23T14:11:54.898Z,6.60
2017-11-23T14:13:01.822Z,6.00
2017-11-23T14:14:08.721Z,5.40
2017-11-23T14:15:15.635Z,9.20
2017-11-23T14:16:22.533Z,6.20
2017-11-23T14:17:29.432Z,6.30
2017-11-23T14:18:36.226Z,5.30
2017-11-23T14:19:43.082Z,6.40
2017-11-23T14:20:49.952Z,8.40
2017-11-23T14:21:56.925Z,4.00
2017-11-23T14:23:03.880Z,8.30
2017-11-23T14:24:10.993Z,4.00
2017-11-23T14:25:19.019Z,8.30
2017-11-23T14:26:24.985Z,4.70
2017-11-23T14:27:32.035Z,4.20
2017-11-23T14:28:38.948Z,4.10